Time;durP1;ratioP1;P1;durP2;ratioP2;P2;SDS_P1;SDS_P2;PMS_P1;PMS_P2;Temp;Humidity;BMP_temperature;BMP_pressure;BME280_temperature;BME280_humidity;BME280_pressure;Samples;Min_cycle;Max_cycle;Signal;HPM_P1;HPM_P2
2022/04/19 00:01:59;;;;;;;;;10.50;8.75;;;;;14.66;37.73;97936.22;4839216;29;103423;-81
2022/04/19 00:04:26;;;;;;;;;8.50;7.50;;;;;14.66;37.89;97938.94;4807715;29;103444;-81
2022/04/19 00:06:53;;;;;;;;;7.00;6.75;;;;;14.64;37.89;97932.91;4841381;29;102472;-81
2022/04/19 00:09:20;;;;;;;;;6.75;6.75;;;;;14.66;38.11;97938.94;4839028;29;104218;-81
2022/04/19 00:11:47;;;;;;;;;9.00;6.50;;;;;14.64;38.43;97925.56;4843858;29;102330;-81
2022/04/19 00:14:14;;;;;;;;;8.00;7.00;;;;;14.63;38.46;97929.38;4840905;29;102089;-81
2022/04/19 00:16:41;;;;;;;;;6.00;6.00;;;;;14.61;37.75;97928.78;4845964;29;105253;-81
2022/04/19 00:19:07;;;;;;;;;7.25;6.50;;;;;14.60;38.36;97924.41;4839015;28;104357;-81
2022/04/19 00:21:34;;;;;;;;;8.00;8.00;;;;;14.58;37.84;97920.31;4840414;29;102469;-81
2022/04/19 00:24:02;;;;;;;;;7.75;7.50;;;;;14.59;37.78;97924.69;4842036;28;102294;-81
2022/04/19 00:26:29;;;;;;;;;9.25;7.00;;;;;14.58;37.76;97921.13;4863308;28;102293;-81
2022/04/19 00:28:55;;;;;;;;;8.75;7.75;;;;;14.59;38.49;97916.53;4848149;28;103674;-81
2022/04/19 00:31:22;;;;;;;;;7.25;6.25;;;;;14.57;38.09;97914.03;4839559;28;102388;-81
2022/04/19 00:33:49;;;;;;;;;8.00;7.00;;;;;14.57;38.25;97914.03;4861551;28;102450;-81
2022/04/19 00:36:18;;;;;;;;;8.00;7.25;;;;;14.55;37.84;97918.03;4857445;28;104147;-80
2022/04/19 00:38:45;;;;;;;;;6.00;5.00;;;;;14.51;37.88;97909.56;4863263;28;104132;-81
2022/04/19 00:41:12;;;;;;;;;8.50;8.00;;;;;14.54;37.91;97898.19;4858800;28;102716;-81
2022/04/19 00:43:39;;;;;;;;;8.00;5.75;;;;;14.55;37.97;97901.72;4863687;28;102246;-81
2022/04/19 00:46:05;;;;;;;;;10.25;8.50;;;;;14.55;37.46;97909.88;4862651;28;102778;-81
2022/04/19 00:48:32;;;;;;;;;6.75;6.00;;;;;14.55;38.31;97913.44;4858568;28;104134;-81
2022/04/19 00:51:01;;;;;;;;;7.00;6.75;;;;;14.54;37.63;97908.25;4863635;28;102606;-81
2022/04/19 00:53:28;;;;;;;;;7.25;6.75;;;;;14.55;37.84;97907.16;4851772;28;102414;-81
2022/04/19 00:55:57;;;;;;;;;10.75;9.00;;;;;14.54;37.75;97897.38;4863729;28;102423;-81
2022/04/19 00:58:24;;;;;;;;;7.75;7.25;;;;;14.53;37.75;97895.72;4823795;28;104106;-81
2022/04/19 01:00:51;;;;;;;;;9.75;8.50;;;;;14.50;38.35;97891.56;4868752;28;103059;-81
2022/04/19 01:03:18;;;;;;;;;9.00;8.00;;;;;14.51;38.17;97884.25;4831020;28;102214;-81
2022/04/19 01:05:46;;;;;;;;;8.75;7.00;;;;;14.50;37.84;97890.78;4848049;28;102387;-81
2022/04/19 01:08:14;;;;;;;;;7.00;6.25;;;;;14.49;38.23;97884.50;4868625;28;104265;-81
2022/04/19 01:10:42;;;;;;;;;9.25;7.50;;;;;14.47;38.29;97880.34;4866745;28;102111;-81
2022/04/19 01:13:18;;;;;;;;;7.25;6.25;;;;;14.47;38.06;97880.34;4847482;28;104837;-81
2022/04/19 01:15:49;;;;;;;;;11.00;7.00;;;;;14.46;37.51;97884.13;4863180;28;102565;-81
2022/04/19 01:18:24;;;;;;;;;7.75;7.75;;;;;14.46;38.40;97879.53;4859064;28;104156;-81
2022/04/19 01:20:52;;;;;;;;;7.50;5.50;;;;;14.44;38.32;97878.13;4851777;28;103063;-81
2022/04/19 01:23:20;;;;;;;;;8.25;7.50;;;;;14.43;38.01;97873.75;4859378;28;104094;-81
2022/04/19 01:25:47;;;;;;;;;7.00;6.50;;;;;14.44;37.77;97875.41;4869943;28;102540;-81
2022/04/19 01:28:14;;;;;;;;;9.00;9.00;;;;;14.46;38.20;97875.97;4856491;28;104079;-81
2022/04/19 01:30:43;;;;;;;;;7.00;6.75;;;;;14.46;38.17;97867.81;4865302;28;102359;-81
2022/04/19 01:33:10;;;;;;;;;7.75;6.75;;;;;14.45;37.76;97871.63;4855726;28;102387;-81
2022/04/19 01:35:38;;;;;;;;;7.50;7.00;;;;;14.45;37.69;97864.31;4866412;28;103722;-81
2022/04/19 01:38:05;;;;;;;;;9.25;8.25;;;;;14.44;38.08;97859.09;4860938;28;104115;-81
2022/04/19 01:40:32;;;;;;;;;10.00;7.25;;;;;14.44;38.25;97864.53;4865088;28;102199;-81
2022/04/19 01:42:59;;;;;;;;;9.25;7.50;;;;;14.44;37.85;97856.38;4863437;28;102482;-81
2022/04/19 01:45:28;;;;;;;;;10.50;9.00;;;;;14.45;37.72;97863.47;4865544;28;103603;-81
2022/04/19 01:47:56;;;;;;;;;8.00;7.75;;;;;14.42;37.69;97861.22;4842802;28;104272;-81
2022/04/19 01:50:26;;;;;;;;;10.25;9.00;;;;;14.41;38.42;97865.81;4859564;28;102184;-81
2022/04/19 01:52:54;;;;;;;;;9.00;8.00;;;;;14.41;38.58;97854.94;4861883;28;102408;-81
2022/04/19 01:55:21;;;;;;;;;9.25;7.00;;;;;14.40;38.23;97861.47;4846975;28;104056;-81
2022/04/19 01:57:53;;;;;;;;;10.00;8.00;;;;;14.40;37.86;97855.22;4859777;28;104624;-81
2022/04/19 02:00:20;;;;;;;;;10.50;8.75;;;;;14.39;38.27;97850.84;4843787;28;102572;-81
2022/04/19 02:02:47;;;;;;;;;10.00;10.00;;;;;14.38;38.41;97850.00;4846317;28;103855;-81
2022/04/19 02:05:15;;;;;;;;;13.00;8.00;;;;;14.38;37.75;97846.47;4845008;28;104196;-81
2022/04/19 02:07:45;;;;;;;;;11.00;10.00;;;;;14.36;37.69;97852.16;4848493;28;104187;-81
2022/04/19 02:10:15;;;;;;;;;10.75;9.75;;;;;14.37;38.34;97848.34;4857317;28;102510;-81
2022/04/19 02:12:42;;;;;;;;;11.00;9.00;;;;;14.38;37.35;97847.28;4862824;28;102118;-81
2022/04/19 02:15:10;;;;;;;;;8.75;8.75;;;;;14.38;38.19;97849.19;4864503;28;102173;-81
2022/04/19 02:17:47;;;;;;;;;7.25;7.00;;;;;14.36;37.77;97846.72;4844311;28;104045;-81
2022/04/19 02:20:16;;;;;;;;;10.75;9.75;;;;;14.39;37.63;97850.84;4842631;28;104248;-81
2022/04/19 02:22:43;;;;;;;;;9.00;9.00;;;;;14.40;37.58;97852.50;4832344;28;102294;-81
2022/04/19 02:25:11;;;;;;;;;11.00;9.00;;;;;14.40;37.54;97857.94;4863953;28;102556;-81
2022/04/19 02:27:40;;;;;;;;;12.25;10.00;;;;;14.41;38.02;97870.47;4865173;28;105363;-81
2022/04/19 02:30:13;;;;;;;;;9.25;9.00;;;;;14.39;37.51;97867.16;4863569;28;102154;-81
2022/04/19 02:32:44;;;;;;;;;9.25;8.00;;;;;14.39;37.73;97872.59;4860185;28;102407;-81
2022/04/19 02:35:14;;;;;;;;;10.00;9.00;;;;;14.38;38.05;97870.94;4860952;28;102946;-81
2022/04/19 02:38:07;;;;;;;;;12.00;10.50;;;;;14.36;38.23;97862.22;4858050;28;104100;-81
2022/04/19 02:40:34;;;;;;;;;10.00;9.00;;;;;14.36;37.60;97854.88;4861325;28;103245;-81
2022/04/19 02:43:01;;;;;;;;;10.75;9.25;;;;;14.34;38.37;97845.25;4863731;28;102267;-81
2022/04/19 02:45:27;;;;;;;;;8.00;8.00;;;;;14.33;37.62;97839.00;4842703;28;102216;-81
2022/04/19 02:48:04;;;;;;;;;11.50;10.25;;;;;14.33;38.39;97836.28;4863744;28;104034;-81
2022/04/19 02:50:33;;;;;;;;;10.50;8.50;;;;;14.31;38.31;97827.56;4829530;28;104650;-81
2022/04/19 02:53:01;;;;;;;;;11.00;9.25;;;;;14.30;38.05;97826.72;4845264;28;102763;-81
2022/04/19 02:55:28;;;;;;;;;12.75;9.00;;;;;14.29;37.59;97816.91;4864254;28;102529;-81
2022/04/19 02:57:56;;;;;;;;;10.00;9.00;;;;;14.34;38.06;97809.91;4857795;28;104289;-81
2022/04/19 03:00:23;;;;;;;;;9.75;9.25;;;;;14.33;37.37;97825.41;4846605;28;103648;-81
2022/04/19 03:02:51;;;;;;;;;11.75;11.00;;;;;14.32;37.47;97827.28;4862134;28;102411;-81
2022/04/19 03:05:18;;;;;;;;;10.75;9.00;;;;;14.33;38.55;97822.69;4830296;28;103088;-81
2022/04/19 03:07:46;;;;;;;;;13.00;10.00;;;;;14.34;37.54;97827.06;4832705;28;105729;-81
2022/04/19 03:10:15;;;;;;;;;10.50;10.50;;;;;14.34;38.18;97820.78;4858745;28;102762;-81
2022/04/19 03:12:45;;;;;;;;;11.25;10.25;;;;;14.32;38.12;97821.84;4862326;28;102343;-81
2022/04/19 03:15:12;;;;;;;;;10.50;9.00;;;;;14.32;37.56;97827.28;4844104;28;103186;-81
2022/04/19 03:17:40;;;;;;;;;12.25;10.75;;;;;14.32;37.35;97830.00;4864227;28;104075;-81
2022/04/19 03:20:11;;;;;;;;;10.75;9.75;;;;;14.30;37.46;97829.44;4857416;28;104283;-81
2022/04/19 03:28:12;;;;;;;;;10.00;8.00;;;;;14.27;38.23;97810.88;4859422;28;103372;-81
2022/04/19 03:30:39;;;;;;;;;12.00;11.00;;;;;14.27;37.69;97802.72;4861786;28;102426;-81
2022/04/19 03:33:06;;;;;;;;;15.75;11.25;;;;;14.27;38.14;97804.63;4843729;28;103152;-81
2022/04/19 03:35:36;;;;;;;;;11.00;10.25;;;;;14.26;37.49;97808.41;4844211;28;104327;-81
2022/04/19 03:38:07;;;;;;;;;10.25;8.25;;;;;14.24;37.94;97805.94;4850858;28;104022;-81
2022/04/19 03:40:34;;;;;;;;;9.50;9.50;;;;;14.26;37.38;97805.69;4848560;28;103084;-81
2022/04/19 03:43:02;;;;;;;;;13.00;11.00;;;;;14.27;37.94;97804.63;4865885;28;102347;-81
2022/04/19 03:45:29;;;;;;;;;16.50;11.00;;;;;14.29;37.96;97795.16;4851735;28;103309;-81
2022/04/19 03:47:56;;;;;;;;;10.25;10.25;;;;;14.29;37.26;97803.31;4863373;28;104210;-81
2022/04/19 03:50:25;;;;;;;;;11.50;10.50;;;;;14.29;37.82;97805.19;4862287;28;102350;-81
2022/04/19 03:52:52;;;;;;;;;13.75;10.50;;;;;14.27;37.66;97810.88;4868598;28;102371;-81
2022/04/19 03:55:20;;;;;;;;;9.50;9.00;;;;;14.28;38.07;97808.97;4865761;28;103342;-81
2022/04/19 03:57:46;;;;;;;;;13.50;12.00;;;;;14.27;37.77;97816.31;4868610;28;104079;-81
2022/04/19 04:00:14;;;;;;;;;11.25;10.75;;;;;14.27;37.40;97827.19;4863884;28;102139;-81
2022/04/19 04:02:41;;;;;;;;;15.00;12.00;;;;;14.27;37.88;97845.44;4848893;28;102585;-81
2022/04/19 04:05:08;;;;;;;;;13.50;12.25;;;;;14.26;37.48;97858.19;4859879;28;102659;-81
2022/04/19 04:07:37;;;;;;;;;11.00;10.00;;;;;14.26;37.84;97857.38;4867861;28;104025;-81
2022/04/19 04:10:05;;;;;;;;;12.75;11.25;;;;;14.25;37.18;97851.09;4864904;28;102465;-81
2022/04/19 04:12:31;;;;;;;;;11.00;10.25;;;;;14.23;38.01;97844.25;4868069;28;102342;-81
2022/04/19 04:15:00;;;;;;;;;14.50;11.75;;;;;14.22;37.63;97845.31;4848745;28;102535;-81
2022/04/19 04:17:28;;;;;;;;;11.75;11.00;;;;;14.20;37.18;97836.56;4867139;28;103830;-81
2022/04/19 04:19:58;;;;;;;;;10.75;10.75;;;;;14.19;37.90;97830.31;4863839;28;102531;-81
2022/04/19 04:22:26;;;;;;;;;16.00;13.00;;;;;14.18;37.85;97828.66;4843952;28;102132;-81
2022/04/19 04:24:53;;;;;;;;;14.25;12.50;;;;;14.19;37.53;97838.47;4868704;28;102423;-81
2022/04/19 04:27:20;;;;;;;;;12.00;11.25;;;;;14.21;37.21;97839.06;4853895;28;104123;-81
2022/04/19 04:29:47;;;;;;;;;14.50;13.00;;;;;14.22;38.25;97845.31;4867756;28;102202;-81
2022/04/19 04:32:13;;;;;;;;;11.75;10.00;;;;;14.24;37.39;97841.28;4869182;28;102571;-81
2022/04/19 04:34:40;;;;;;;;;10.75;9.00;;;;;14.20;37.78;97826.53;4847832;28;102565;-81
2022/04/19 04:37:07;;;;;;;;;13.50;12.00;;;;;14.23;38.15;97831.47;4862999;28;104192;-81
2022/04/19 04:39:34;;;;;;;;;12.25;11.75;;;;;14.24;37.91;97844.00;4865109;28;102930;-81
2022/04/19 04:42:04;;;;;;;;;12.00;10.75;;;;;14.23;37.33;97845.06;4869795;28;102096;-82
2022/04/19 04:44:32;;;;;;;;;15.50;13.25;;;;;14.30;37.67;97832.16;4869584;28;103406;-82
2022/04/19 04:49:44;;;;;;;;;12.50;11.00;;;;;14.41;37.64;97837.84;4864947;28;102502;-82
2022/04/19 04:52:12;;;;;;;;;11.50;9.75;;;;;14.46;37.30;97836.00;4864315;28;103288;-82
2022/04/19 04:54:40;;;;;;;;;13.25;11.50;;;;;14.51;37.50;97827.09;4847616;28;103133;-82
2022/04/19 04:57:07;;;;;;;;;12.00;10.00;;;;;14.55;37.48;97833.72;4847369;28;104085;-82
2022/04/19 04:59:35;;;;;;;;;13.25;10.00;;;;;14.58;37.01;97834.06;4864722;28;103597;-82
2022/04/19 05:02:03;;;;;;;;;10.00;10.00;;;;;14.61;37.34;97827.31;4847031;28;102459;-82
2022/04/19 05:04:30;;;;;;;;;14.00;9.25;;;;;14.66;37.38;97827.38;4862908;28;102346;-82
2022/04/19 05:06:57;;;;;;;;;10.25;9.75;;;;;14.68;37.62;97828.78;4858182;28;104234;-81
2022/04/19 05:09:23;;;;;;;;;10.75;10.00;;;;;14.70;36.89;97823.94;4858984;28;102558;-81
2022/04/19 05:11:52;;;;;;;;;14.75;11.00;;;;;14.74;36.98;97816.91;4864427;28;102128;-81
2022/04/19 05:14:19;;;;;;;;;13.25;11.75;;;;;14.78;37.13;97830.84;4868242;28;102508;-81
2022/04/19 05:16:46;;;;;;;;;13.00;12.00;;;;;14.81;37.21;97838.53;4849365;28;104037;-82
2022/04/19 05:19:13;;;;;;;;;11.50;10.00;;;;;14.85;36.67;97839.69;4868112;28;102373;-81
2022/04/19 05:21:44;;;;;;;;;14.25;11.00;;;;;14.88;37.03;97831.03;4850120;28;103040;-81
2022/04/19 05:24:11;;;;;;;;;12.50;10.25;;;;;14.91;36.88;97833.25;4870006;28;102573;-82
2022/04/19 05:26:38;;;;;;;;;9.00;8.25;;;;;14.93;37.19;97825.66;4867313;28;104195;-82
2022/04/19 05:29:05;;;;;;;;;11.50;10.00;;;;;14.95;36.60;97826.22;4867323;28;102321;-82
2022/04/19 05:31:32;;;;;;;;;12.00;11.00;;;;;14.98;36.68;97828.47;4849594;28;102695;-82
2022/04/19 05:33:59;;;;;;;;;16.00;12.50;;;;;14.99;36.85;97830.13;4869422;28;102551;-81
2022/04/19 05:36:26;;;;;;;;;11.75;10.25;;;;;15.02;36.64;97834.25;4858982;28;104372;-82
2022/04/19 05:38:54;;;;;;;;;13.00;11.50;;;;;15.04;36.57;97832.91;4866951;28;102411;-82
2022/04/19 05:41:20;;;;;;;;;13.50;11.00;;;;;15.06;37.03;97832.69;4866379;28;103775;-82
2022/04/19 05:43:48;;;;;;;;;11.50;10.50;;;;;15.06;36.66;97830.78;4869690;28;102178;-82
2022/04/19 05:46:17;;;;;;;;;13.75;11.50;;;;;15.08;36.78;97831.34;4849059;28;104494;-82
2022/04/19 05:48:47;;;;;;;;;10.25;10.00;;;;;15.09;36.87;97824.81;4854364;28;102425;-82
2022/04/19 05:51:14;;;;;;;;;13.00;12.00;;;;;15.09;36.57;97830.28;4846594;28;102372;-82
2022/04/19 05:53:41;;;;;;;;;12.25;11.50;;;;;15.10;36.62;97829.22;4874651;28;102447;-82
2022/04/19 05:56:07;;;;;;;;;12.25;11.00;;;;;15.12;36.65;97832.53;4870219;28;104172;-82
2022/04/19 05:58:34;;;;;;;;;11.25;11.25;;;;;15.14;36.45;97824.09;4874355;28;102110;-81
2022/04/19 06:01:01;;;;;;;;;14.75;10.75;;;;;15.14;36.84;97824.91;4868754;28;103737;-82
2022/04/19 06:06:14;;;;;;;;;13.00;11.25;;;;;15.17;36.73;97821.69;4866314;28;104948;-82
2022/04/19 06:08:42;;;;;;;;;12.00;10.00;;;;;15.17;36.91;97827.13;4873208;28;102527;-82
2022/04/19 06:11:12;;;;;;;;;12.00;10.00;;;;;15.17;36.59;97821.69;4870538;28;102097;-82
2022/04/19 06:13:40;;;;;;;;;11.00;10.00;;;;;15.17;36.01;97821.69;4873921;28;102348;-82
2022/04/19 06:16:08;;;;;;;;;12.25;12.00;;;;;15.18;36.59;97825.22;4871226;28;104240;-82
2022/04/19 06:18:35;;;;;;;;;11.25;11.00;;;;;15.18;36.25;97823.34;4872227;28;102065;-82
2022/04/19 06:21:05;;;;;;;;;14.00;12.25;;;;;15.18;36.51;97817.88;4850691;28;102944;-82
2022/04/19 06:23:33;;;;;;;;;12.00;11.25;;;;;15.19;36.21;97821.44;4859881;28;102437;-82
2022/04/19 06:26:00;;;;;;;;;12.00;10.25;;;;;15.19;36.21;97818.72;4849021;28;104056;-82
2022/04/19 06:28:27;;;;;;;;;14.75;12.50;;;;;15.18;36.25;97823.34;4855817;28;102657;-82
2022/04/19 06:30:54;;;;;;;;;11.50;10.00;;;;;15.18;36.57;97819.78;4872163;28;102044;-82
2022/04/19 06:33:21;;;;;;;;;12.50;11.00;;;;;15.19;36.43;97819.53;4873021;28;102626;-82
2022/04/19 06:35:48;;;;;;;;;12.00;10.75;;;;;15.19;36.46;97824.16;4866965;28;104754;-82
2022/04/19 06:38:15;;;;;;;;;10.50;10.00;;;;;15.18;36.11;97825.22;4869488;28;102130;-82
2022/04/19 06:40:42;;;;;;;;;12.25;11.00;;;;;15.17;35.84;97826.31;4869033;28;102141;-82
2022/04/19 06:43:09;;;;;;;;;12.75;11.75;;;;;15.17;35.97;97824.41;4856349;28;102757;-82
2022/04/19 06:45:36;;;;;;;;;12.50;11.50;;;;;15.18;36.33;97817.88;4869542;28;104100;-82
2022/04/19 06:48:05;;;;;;;;;11.75;11.25;;;;;15.17;36.20;97818.94;4854685;28;102216;-81
2022/04/19 06:50:32;;;;;;;;;12.00;11.25;;;;;15.17;36.22;97810.78;4868880;28;102596;-82
2022/04/19 06:52:59;;;;;;;;;11.50;11.00;;;;;15.18;36.44;97811.63;4866746;28;102341;-82
2022/04/19 06:55:26;;;;;;;;;11.25;11.00;;;;;15.19;36.33;97819.53;4868993;28;104370;-82
2022/04/19 06:57:53;;;;;;;;;10.50;10.25;;;;;15.18;36.06;97817.88;4869653;28;102957;-82
2022/04/19 07:00:21;;;;;;;;;9.50;9.25;;;;;15.19;36.57;97829.59;4869874;28;102119;-82
2022/04/19 07:02:48;;;;;;;;;11.25;10.00;;;;;15.18;36.39;97823.34;4867156;28;102103;-81
2022/04/19 07:05:16;;;;;;;;;12.75;11.00;;;;;15.18;36.72;97815.16;4870404;28;104605;-81
2022/04/19 07:07:43;;;;;;;;;13.00;11.00;;;;;15.19;36.38;97824.16;4863598;28;102848;-82
2022/04/19 07:10:11;;;;;;;;;12.00;10.75;;;;;15.19;36.32;97825.00;4870867;28;102441;-82
2022/04/19 07:12:45;;;;;;;;;10.75;9.00;;;;;15.18;36.30;97814.34;4870481;28;102351;-82
2022/04/19 07:15:12;;;;;;;;;10.00;9.75;;;;;15.17;36.15;97821.69;4868741;28;104077;-82
2022/04/19 07:17:43;;;;;;;;;10.50;9.00;;;;;15.19;36.58;97825.00;4870195;28;102207;-81
2022/04/19 07:28:27;;;;;;;;;16.00;12.00;;;;;15.22;36.16;97822.84;4866033;28;102051;-82
2022/04/19 07:30:54;;;;;;;;;12.75;11.00;;;;;15.21;36.22;97826.66;4873049;28;102574;-82
2022/04/19 07:33:21;;;;;;;;;8.75;8.75;;;;;15.22;36.32;97817.41;4869492;28;102621;-82
2022/04/19 07:35:49;;;;;;;;;13.25;11.25;;;;;15.22;36.29;97825.59;4867834;28;104186;-82
2022/04/19 07:38:16;;;;;;;;;14.75;10.75;;;;;15.21;36.48;97822.03;4832592;28;102169;-82
2022/04/19 07:40:44;;;;;;;;;12.00;10.00;;;;;15.23;36.45;97824.47;4867727;28;103627;-82
2022/04/19 07:43:11;;;;;;;;;11.25;9.75;;;;;15.23;36.04;97824.47;4837911;28;102425;-82
2022/04/19 07:45:38;;;;;;;;;11.00;9.00;;;;;15.22;36.27;97825.59;4852767;28;104092;-82
2022/04/19 07:48:06;;;;;;;;;14.75;12.00;;;;;15.23;36.34;97829.94;4869974;28;102363;-82
2022/04/19 07:50:34;;;;;;;;;11.50;10.50;;;;;15.24;36.23;97815.25;4870384;28;101998;-82
2022/04/19 07:53:01;;;;;;;;;10.25;10.00;;;;;15.23;36.40;97821.75;4864637;28;102717;-82
2022/04/19 07:55:28;;;;;;;;;10.00;9.00;;;;;15.25;36.38;97825.06;4870449;28;104111;-82
2022/04/19 07:57:55;;;;;;;;;10.00;10.00;;;;;15.22;36.14;97829.09;4868929;28;102527;-82
2022/04/19 08:00:24;;;;;;;;;11.50;10.25;;;;;15.24;36.36;97828.88;4864047;28;102985;-82
2022/04/19 08:02:50;;;;;;;;;13.00;9.50;;;;;15.24;36.38;97831.59;4870431;28;102216;-82
2022/04/19 08:05:18;;;;;;;;;12.75;8.25;;;;;15.23;36.59;97828.03;4869996;28;104367;-82
2022/04/19 08:07:48;;;;;;;;;12.00;9.75;;;;;15.24;36.40;97832.41;4864970;28;102223;-82
2022/04/19 08:10:15;;;;;;;;;12.50;8.00;;;;;15.24;36.34;97837.84;4868990;28;102559;-82
2022/04/19 08:12:42;;;;;;;;;10.75;8.75;;;;;15.24;36.25;97843.31;4869110;28;102075;-82
2022/04/19 08:15:09;;;;;;;;;11.00;9.25;;;;;15.25;36.53;97841.41;4853216;28;104059;-82
2022/04/19 08:17:36;;;;;;;;;12.25;11.25;;;;;15.25;36.48;97847.69;4865772;28;104107;-82
2022/04/19 08:20:05;;;;;;;;;13.50;10.00;;;;;15.27;35.94;97847.41;4869612;28;101998;-82
2022/04/19 08:22:32;;;;;;;;;10.50;9.00;;;;;15.26;36.06;97853.97;4846033;28;102835;-82
2022/04/19 08:25:00;;;;;;;;;10.00;8.00;;;;;15.27;35.97;97841.97;4868438;28;102817;-82
2022/04/19 08:27:27;;;;;;;;;9.50;9.00;;;;;15.27;35.91;97847.41;4867822;28;102189;-82
2022/04/19 08:29:53;;;;;;;;;9.50;9.00;;;;;15.27;36.30;97850.16;4852986;28;102196;-81
2022/04/19 08:32:20;;;;;;;;;9.50;8.75;;;;;15.27;36.49;97842.78;4869309;28;102620;-81
2022/04/19 08:34:47;;;;;;;;;11.75;9.00;;;;;15.28;36.31;97844.44;4865704;28;103847;-82
2022/04/19 08:37:14;;;;;;;;;10.75;10.00;;;;;15.28;36.48;97847.19;4863727;28;102471;-81
2022/04/19 08:39:41;;;;;;;;;10.00;9.50;;;;;15.29;36.12;97854.28;4868539;28;102467;-82
2022/04/19 08:42:08;;;;;;;;;11.00;9.00;;;;;15.28;36.26;97855.34;4851784;28;102752;-82
2022/04/19 08:44:37;;;;;;;;;10.00;8.25;;;;;15.29;35.91;97854.28;4836603;28;104055;-82
2022/04/19 08:47:06;;;;;;;;;12.00;8.00;;;;;15.30;36.28;97857.84;4833445;28;102176;-81
2022/04/19 08:49:42;;;;;;;;;14.00;11.00;;;;;15.30;36.02;97857.84;4848723;28;102341;-82
2022/04/19 08:52:09;;;;;;;;;10.00;9.00;;;;;15.31;35.89;97864.94;4867724;28;102211;-82
2022/04/19 08:57:31;;;;;;;;;11.25;10.00;;;;;15.32;36.50;97866.56;4869512;28;102501;-82
2022/04/19 08:59:59;;;;;;;;;10.50;9.00;;;;;15.34;35.99;97864.44;4868692;28;102144;-82
2022/04/19 09:02:27;;;;;;;;;7.75;7.75;;;;;15.33;36.19;97866.31;4847194;28;102468;-82
2022/04/19 09:05:11;;;;;;;;;10.00;9.00;;;;;15.33;36.27;97879.13;4845095;28;105252;-82
2022/04/19 09:07:38;;;;;;;;;8.00;7.75;;;;;15.33;36.19;97873.66;4850032;28;103444;-82
2022/04/19 09:10:11;;;;;;;;;8.00;7.75;;;;;15.33;36.53;97874.50;4851913;28;102177;-82
2022/04/19 09:12:38;;;;;;;;;7.25;7.25;;;;;15.34;36.44;97872.59;4856538;28;102835;-82
2022/04/19 09:15:06;;;;;;;;;3.50;3.00;;;;;15.35;36.43;97882.44;4855138;28;104103;-81
2022/04/19 09:17:34;;;;;;;;;6.50;6.00;;;;;15.35;36.17;97877.81;4871273;28;102337;-82
2022/04/19 09:20:12;;;;;;;;;9.00;8.00;;;;;15.35;36.47;97882.44;4872390;28;102296;-82
2022/04/19 09:22:39;;;;;;;;;7.75;7.75;;;;;15.36;36.36;97887.59;4867713;28;102859;-82
2022/04/19 09:25:20;;;;;;;;;8.00;6.75;;;;;15.36;35.91;97884.06;4849734;28;104351;-82
2022/04/19 09:27:48;;;;;;;;;8.00;8.00;;;;;15.36;36.45;97895.78;4869851;28;102149;-82
2022/04/19 09:30:24;;;;;;;;;9.75;7.75;;;;;15.37;36.36;97893.88;4871960;28;102408;-82
2022/04/19 09:33:09;;;;;;;;;8.00;7.00;;;;;15.38;36.04;97887.38;4872710;28;102258;-82
2022/04/19 09:35:43;;;;;;;;;8.75;7.25;;;;;15.38;36.32;97898.28;4872512;28;104099;-82
2022/04/19 09:38:12;;;;;;;;;7.00;6.00;;;;;15.39;36.08;97894.47;4865972;28;102908;-82
2022/04/19 09:40:57;;;;;;;;;9.00;7.75;;;;;15.37;36.07;97896.63;4850243;28;102584;-82
2022/04/19 09:43:44;;;;;;;;;8.25;7.00;;;;;15.38;36.45;97892.81;4851606;28;102096;-82
2022/04/19 09:46:14;;;;;;;;;8.75;6.75;;;;;15.38;36.29;97907.28;4852899;28;104042;-82
2022/04/19 09:48:41;;;;;;;;;7.75;6.00;;;;;15.39;35.97;97905.38;4854134;28;102479;-82
2022/04/19 09:51:12;;;;;;;;;10.50;8.50;;;;;15.40;35.94;97907.03;4870988;28;103342;-82
2022/04/19 09:53:46;;;;;;;;;6.50;6.25;;;;;15.40;36.65;97909.75;4867430;28;103160;-82
2022/04/19 09:56:13;;;;;;;;;6.00;6.00;;;;;15.40;36.20;97905.09;4871360;28;104358;-82
2022/04/19 09:59:01;;;;;;;;;5.75;5.75;;;;;15.42;36.09;97899.41;4851213;28;103320;-82
2022/04/19 10:09:35;;;;;;;;;7.50;6.25;;;;;15.45;36.17;97909.81;4865221;28;102599;-82
2022/04/19 10:12:06;;;;;;;;;8.25;7.75;;;;;15.45;36.22;97904.34;4869456;28;102406;-82
2022/04/19 10:14:33;;;;;;;;;10.25;8.75;;;;;15.46;36.08;97909.56;4870652;28;102569;-81
2022/04/19 10:17:02;;;;;;;;;6.75;6.75;;;;;15.47;36.05;97911.22;4854805;28;104284;-81
2022/04/19 10:19:29;;;;;;;;;6.75;6.25;;;;;15.49;36.36;97911.00;4848925;28;102157;-81
2022/04/19 10:21:58;;;;;;;;;8.50;8.00;;;;;15.49;36.01;97906.34;4854557;28;102447;-82
2022/04/19 10:24:27;;;;;;;;;6.50;6.50;;;;;15.49;36.32;97911.00;4849849;28;102927;-82
2022/04/19 10:26:54;;;;;;;;;6.75;6.75;;;;;15.50;36.29;97907.16;4854626;28;104094;-82
2022/04/19 10:29:23;;;;;;;;;4.50;4.50;;;;;15.50;36.11;97915.34;4869222;28;102598;-82
2022/04/19 10:32:07;;;;;;;;;10.50;6.50;;;;;15.51;36.23;97914.31;4846724;28;102086;-82
2022/04/19 10:34:39;;;;;;;;;9.75;8.00;;;;;15.51;36.06;97919.75;4865451;28;102340;-82
2022/04/19 10:37:16;;;;;;;;;8.50;6.25;;;;;15.51;36.24;97917.84;4871330;28;104365;-82
2022/04/19 10:39:50;;;;;;;;;6.00;6.00;;;;;15.51;35.94;97927.94;4865941;28;102242;-82
2022/04/19 10:42:37;;;;;;;;;7.25;7.00;;;;;15.50;36.26;97920.78;4837260;28;102536;-82
2022/04/19 10:45:13;;;;;;;;;6.25;6.25;;;;;15.51;36.34;97930.66;4868717;28;102335;-81
2022/04/19 10:47:58;;;;;;;;;9.00;7.75;;;;;15.49;36.16;97932.78;4870972;28;104213;-82
2022/04/19 10:50:29;;;;;;;;;8.00;7.00;;;;;15.51;36.15;97938.81;4870046;28;102468;-82
2022/04/19 10:52:59;;;;;;;;;6.25;6.25;;;;;15.49;36.21;97949.13;4847966;28;102356;-81
2022/04/19 10:55:28;;;;;;;;;7.50;6.25;;;;;15.48;36.38;97947.47;4868702;28;102713;-82
2022/04/19 10:58:16;;;;;;;;;6.00;6.00;;;;;15.49;36.06;97944.47;4869711;28;104166;-82
2022/04/19 11:00:45;;;;;;;;;7.25;6.50;;;;;15.49;36.21;97951.84;4852713;28;102091;-82
2022/04/19 11:03:33;;;;;;;;;6.00;5.25;;;;;15.49;36.29;97952.66;4853239;28;102241;-82
2022/04/19 11:06:02;;;;;;;;;7.00;6.00;;;;;15.52;35.58;97959.56;4870519;28;102231;-82
2022/04/19 11:08:38;;;;;;;;;7.25;6.50;;;;;15.51;35.74;97949.72;4849248;28;104479;-82
2022/04/19 11:11:08;;;;;;;;;7.00;5.75;;;;;15.51;36.44;97957.91;4867420;28;102476;-82
2022/04/19 11:13:35;;;;;;;;;6.00;5.25;;;;;15.50;36.09;97950.75;4868984;28;102234;-81
2022/04/19 11:16:05;;;;;;;;;7.00;7.00;;;;;15.52;36.15;97959.56;4850602;28;102104;-82
2022/04/19 11:18:54;;;;;;;;;6.50;6.00;;;;;15.53;35.95;97961.22;4870507;28;104066;-82
2022/04/19 11:21:58;;;;;;;;;7.25;5.00;;;;;15.54;36.30;97969.13;4842413;28;102195;-82
2022/04/19 11:25:03;;;;;;;;;6.50;6.00;;;;;15.53;36.06;97967.50;4862085;28;102198;-82
2022/04/19 11:27:52;;;;;;;;;8.25;8.00;;;;;15.54;36.34;97968.28;4870717;28;102470;-81
2022/04/19 11:30:19;;;;;;;;;6.00;6.00;;;;;15.54;36.28;97979.19;4868488;28;103553;-81
2022/04/19 11:32:51;;;;;;;;;7.75;6.25;;;;;15.55;36.31;97976.22;4837940;28;102542;-81
2022/04/19 11:35:18;;;;;;;;;8.00;7.00;;;;;15.55;36.10;97986.31;4869029;28;102369;-81
2022/04/19 11:37:45;;;;;;;;;6.50;6.00;;;;;15.55;36.28;97992.59;4871491;28;102041;-82
2022/04/19 11:48:45;;;;;;;;;5.50;4.25;;;;;15.54;36.38;98017.34;4855532;28;102510;-81
2022/04/19 11:51:13;;;;;;;;;8.00;7.00;;;;;15.53;36.00;98021.16;4867580;28;104077;-82
2022/04/19 11:53:40;;;;;;;;;6.25;5.50;;;;;15.53;36.12;98018.44;4866999;28;102375;-81
2022/04/19 11:56:07;;;;;;;;;6.00;6.00;;;;;15.53;36.20;98021.16;4865338;28;102585;-82
2022/04/19 11:58:36;;;;;;;;;6.25;5.00;;;;;15.52;36.23;98024.94;4871649;28;102506;-81
2022/04/19 12:01:05;;;;;;;;;5.75;5.00;;;;;15.52;36.21;98024.94;4852710;28;104240;-81
2022/04/19 12:03:33;;;;;;;;;5.75;5.00;;;;;15.49;36.28;98018.03;4823029;28;102009;-81
2022/04/19 12:06:08;;;;;;;;;7.00;6.00;;;;;15.51;36.24;98024.13;4866387;28;102050;-82